createdAt,value
2023-03-10T00:01:31.409Z,12.48
2023-03-10T00:06:33.791Z,12.10
2023-03-10T00:11:35.261Z,11.07
2023-03-10T00:16:36.737Z,11.77
2023-03-10T00:21:38.208Z,11.50
2023-03-10T00:26:39.690Z,12.00
2023-03-10T00:31:41.181Z,11.65
2023-03-10T00:36:42.671Z,12.85
2023-03-10T00:41:44.147Z,13.73
2023-03-10T00:46:45.767Z,13.93
2023-03-10T00:51:47.310Z,13.73
2023-03-10T00:56:48.829Z,15.20
2023-03-10T01:01:50.397Z,13.18
2023-03-10T01:06:51.917Z,15.65
2023-03-10T01:11:53.379Z,15.80
2023-03-10T01:16:54.879Z,15.57
2023-03-10T01:21:56.338Z,15.25
2023-03-10T01:26:57.795Z,14.75
2023-03-10T01:31:59.274Z,14.70
2023-03-10T01:37:00.750Z,13.95
2023-03-10T01:42:02.241Z,14.38
2023-03-10T01:47:03.736Z,14.02
2023-03-10T01:52:06.892Z,12.52
2023-03-10T01:57:08.560Z,11.57
2023-03-10T02:02:10.123Z,13.38
2023-03-10T02:07:12.091Z,13.90
2023-03-10T02:12:13.772Z,12.68
2023-03-10T02:17:17.107Z,12.90
2023-03-10T02:27:24.747Z,10.95
2023-03-10T02:32:26.986Z,13.18
2023-03-10T02:37:30.516Z,14.25
2023-03-10T02:42:33.900Z,12.75
2023-03-10T02:47:35.382Z,11.10
2023-03-10T02:53:00.704Z,11.43
2023-03-10T02:58:02.590Z,10.73
2023-03-10T03:03:04.493Z,10.15
2023-03-10T03:08:06.387Z,9.75
2023-03-10T03:13:08.067Z,8.65
2023-03-10T03:18:09.603Z,9.77
2023-03-10T03:23:11.072Z,8.48
2023-03-10T03:28:12.582Z,8.68
2023-03-10T03:33:14.066Z,8.50
2023-03-10T03:38:15.538Z,7.93
2023-03-10T03:43:17.010Z,10.32
2023-03-10T03:48:21.289Z,10.38
2023-03-10T03:53:23.752Z,9.45
2023-03-10T03:58:25.336Z,8.38
2023-03-10T04:03:26.828Z,9.57
2023-03-10T04:08:28.308Z,10.02
2023-03-10T04:13:29.777Z,10.23
2023-03-10T04:18:31.264Z,9.77
2023-03-10T04:23:32.726Z,10.20
2023-03-10T04:28:34.270Z,9.57
2023-03-10T04:33:35.737Z,11.55
2023-03-10T04:38:38.301Z,12.05
2023-03-10T04:43:42.476Z,11.43
2023-03-10T04:48:44.563Z,10.82
2023-03-10T04:53:46.040Z,13.35
2023-03-10T04:58:47.489Z,13.88
2023-03-10T05:03:48.966Z,13.63
2023-03-10T05:08:50.512Z,11.90
2023-03-10T05:13:52.074Z,10.93
2023-03-10T05:18:53.574Z,12.38
2023-03-10T05:23:55.066Z,10.15
2023-03-10T05:28:57.086Z,11.82
2023-03-10T05:33:58.538Z,11.38
2023-03-10T05:39:00.470Z,10.52
2023-03-10T05:44:01.957Z,11.35
2023-03-10T05:49:03.453Z,13.10
2023-03-10T05:54:06.219Z,9.95
2023-03-10T05:59:07.773Z,11.38
2023-03-10T06:04:09.310Z,11.55
2023-03-10T06:09:10.903Z,11.10
2023-03-10T06:14:12.381Z,11.82
2023-03-10T06:19:13.864Z,11.02
2023-03-10T06:24:15.345Z,11.00
2023-03-10T06:29:16.814Z,10.15
2023-03-10T06:34:18.294Z,10.95
2023-03-10T06:39:19.760Z,10.13
2023-03-10T06:44:21.330Z,10.40
2023-03-10T06:49:22.854Z,10.15
2023-03-10T06:54:24.333Z,10.25
2023-03-10T06:59:25.796Z,11.13
2023-03-10T07:04:27.279Z,9.75
2023-03-10T07:09:28.766Z,10.10
2023-03-10T07:14:30.225Z,11.45
2023-03-10T07:19:32.189Z,10.35
2023-03-10T07:24:33.692Z,10.40
2023-03-10T07:29:35.568Z,12.75
2023-03-10T07:34:37.015Z,13.07
2023-03-10T07:39:38.474Z,11.13
2023-03-10T07:44:39.948Z,13.00
2023-03-10T07:49:46.582Z,10.93
2023-03-10T07:54:48.166Z,12.07
2023-03-10T07:59:49.666Z,12.98
2023-03-10T08:04:52.412Z,13.65
2023-03-10T08:09:53.987Z,13.68
2023-03-10T08:14:55.468Z,12.85
2023-03-10T08:19:58.388Z,9.73
2023-03-10T08:24:59.865Z,10.88
2023-03-10T08:30:01.325Z,9.35
2023-03-10T08:35:04.661Z,10.55
2023-03-10T08:40:08.069Z,9.63
2023-03-10T08:50:11.711Z,9.02
2023-03-10T08:55:13.212Z,8.50
2023-03-10T09:00:17.157Z,8.25
2023-03-10T09:05:19.625Z,8.43
2023-03-10T09:10:22.934Z,8.65
2023-03-10T09:15:24.395Z,8.90
2023-03-10T09:20:29.338Z,8.93
2023-03-10T09:25:31.042Z,9.45
2023-03-10T09:30:32.512Z,8.65
2023-03-10T09:35:34.259Z,8.27
2023-03-10T09:40:35.801Z,7.68
2023-03-10T09:45:44.148Z,7.90
2023-03-10T09:50:49.938Z,8.25
2023-03-10T09:55:51.460Z,8.02
2023-03-10T10:00:52.942Z,8.73
2023-03-10T10:05:55.140Z,7.70
2023-03-10T10:10:57.829Z,8.45
2023-03-10T10:16:34.500Z,8.20
2023-03-10T10:21:58.163Z,7.93
2023-03-10T10:26:59.759Z,6.97
2023-03-10T10:32:03.409Z,7.57
2023-03-10T10:37:24.631Z,7.72
2023-03-10T10:42:33.041Z,8.05
2023-03-10T10:47:36.575Z,7.95
2023-03-10T10:52:38.053Z,8.15
2023-03-10T10:57:45.975Z,7.88
2023-03-10T11:02:47.495Z,7.90
2023-03-10T11:07:50.444Z,8.45
2023-03-10T11:13:17.349Z,9.15
2023-03-10T11:18:51.780Z,7.55
2023-03-10T11:24:11.427Z,8.05
2023-03-10T11:29:58.055Z,8.52
2023-03-10T11:34:59.518Z,8.10
2023-03-10T11:40:11.532Z,7.90
2023-03-10T11:45:19.294Z,8.00
2023-03-10T11:50:44.688Z,7.57
2023-03-10T11:55:46.161Z,8.10
2023-03-10T12:00:47.629Z,8.85
2023-03-10T12:05:52.203Z,7.88
2023-03-10T12:10:53.798Z,7.35
2023-03-10T12:15:59.854Z,7.47
2023-03-10T12:21:30.849Z,8.23
2023-03-10T12:26:38.317Z,8.30
2023-03-10T12:31:39.724Z,7.80
2023-03-10T12:36:43.330Z,8.48
2023-03-10T12:41:48.874Z,7.97
2023-03-10T12:47:02.789Z,8.65
2023-03-10T12:52:06.942Z,9.20
2023-03-10T12:57:33.282Z,8.55
2023-03-10T13:02:49.270Z,7.43
2023-03-10T13:07:53.101Z,9.35
2023-03-10T13:12:56.471Z,8.43
2023-03-10T13:18:20.860Z,9.07
2023-03-10T13:23:25.201Z,9.27
2023-03-10T13:28:28.694Z,12.55
2023-03-10T13:33:31.040Z,9.43
2023-03-10T13:38:33.722Z,9.50
2023-03-10T13:43:41.420Z,8.15
2023-03-10T13:48:42.969Z,8.02
2023-03-10T13:53:45.482Z,8.40
2023-03-10T13:58:47.434Z,9.93
2023-03-10T14:03:51.255Z,8.07
2023-03-10T14:08:52.775Z,8.35
2023-03-10T14:13:54.267Z,8.50
2023-03-10T14:18:55.722Z,8.82
2023-03-10T14:24:12.351Z,8.35
2023-03-10T14:29:16.848Z,7.47
2023-03-10T14:34:18.313Z,7.57
2023-03-10T14:39:20.224Z,7.85
2023-03-10T14:44:21.702Z,7.93
2023-03-10T14:49:24.663Z,8.40
2023-03-10T14:54:26.128Z,7.47
2023-03-10T14:59:28.023Z,7.35
2023-03-10T15:04:29.592Z,7.18
2023-03-10T15:09:31.071Z,7.10
2023-03-10T15:14:32.534Z,7.65
2023-03-10T15:19:34.045Z,7.18
2023-03-10T15:24:35.536Z,7.45
2023-03-10T15:29:36.994Z,8.35
2023-03-10T15:34:38.472Z,8.45
2023-03-10T15:39:39.929Z,9.52
2023-03-10T15:44:41.977Z,8.15
2023-03-10T15:49:43.435Z,8.70
2023-03-10T15:54:44.906Z,7.78
2023-03-10T15:59:46.382Z,9.40
2023-03-10T16:04:49.174Z,9.02
2023-03-10T16:09:50.666Z,8.40
2023-03-10T16:14:52.179Z,7.90
2023-03-10T16:19:53.689Z,8.10
2023-03-10T16:24:55.181Z,8.02
2023-03-10T16:29:57.496Z,7.68
2023-03-10T16:34:59.952Z,7.35
2023-03-10T16:40:01.967Z,9.48
2023-03-10T16:45:04.257Z,7.45
2023-03-10T16:50:05.987Z,6.75
2023-03-10T16:55:09.289Z,7.60
2023-03-10T17:00:12.169Z,6.10
2023-03-10T17:05:15.385Z,4.18
2023-03-10T17:10:16.995Z,3.15
2023-03-10T17:15:18.504Z,2.42
2023-03-10T17:20:20.034Z,2.42
2023-03-10T17:25:21.571Z,3.60
2023-03-10T17:30:23.106Z,4.50
2023-03-10T17:35:24.580Z,3.15
2023-03-10T17:40:26.034Z,2.40
2023-03-10T17:45:27.551Z,3.35
2023-03-10T17:50:29.016Z,3.50
2023-03-10T17:55:30.481Z,3.22
2023-03-10T18:00:31.950Z,3.03
2023-03-10T18:05:33.442Z,4.00
2023-03-10T18:10:35.507Z,4.15
2023-03-10T18:15:37.559Z,4.40
2023-03-10T18:20:40.394Z,5.25
2023-03-10T18:25:44.676Z,3.88
2023-03-10T18:30:48.139Z,4.20
2023-03-10T18:35:49.643Z,3.45
2023-03-10T18:41:02.277Z,2.80
2023-03-10T18:46:04.039Z,2.80
2023-03-10T18:51:05.760Z,3.63
2023-03-10T18:56:07.582Z,3.15
2023-03-10T19:01:12.838Z,2.33
2023-03-10T19:06:14.376Z,3.05
2023-03-10T19:11:15.876Z,1.77
2023-03-10T19:16:17.532Z,1.13
2023-03-10T19:21:20.378Z,1.13
2023-03-10T19:26:22.906Z,1.90
2023-03-10T19:31:24.435Z,2.15
2023-03-10T19:36:26.643Z,1.48
2023-03-10T19:41:28.147Z,1.40
2023-03-10T19:46:29.652Z,0.63
2023-03-10T19:51:31.413Z,0.70
2023-03-10T19:56:32.885Z,0.50
2023-03-10T20:01:34.580Z,0.47
2023-03-10T20:06:36.071Z,1.00
2023-03-10T20:11:38.786Z,1.00
2023-03-10T20:16:40.319Z,0.60
2023-03-10T20:21:41.890Z,0.68
2023-03-10T20:26:43.689Z,0.95
2023-03-10T20:31:45.187Z,0.70
2023-03-10T20:36:46.812Z,0.63
2023-03-10T20:41:48.954Z,0.50
2023-03-10T20:46:50.456Z,0.60
2023-03-10T20:51:51.933Z,0.70
2023-03-10T20:56:53.478Z,2.20
2023-03-10T21:01:54.952Z,1.20
2023-03-10T21:06:56.458Z,0.50
2023-03-10T21:11:57.948Z,1.00
2023-03-10T21:17:00.048Z,0.73
2023-03-10T21:22:03.360Z,0.88
2023-03-10T21:27:05.030Z,0.60
2023-03-10T21:32:06.509Z,0.60
2023-03-10T21:37:08.646Z,0.88
2023-03-10T21:42:12.907Z,0.98
2023-03-10T21:47:14.436Z,0.85
2023-03-10T21:52:16.091Z,0.63
2023-03-10T21:57:17.553Z,0.98
2023-03-10T22:02:26.784Z,0.65
2023-03-10T22:07:28.333Z,0.60
2023-03-10T22:12:29.802Z,0.73
2023-03-10T22:17:31.661Z,0.90
2023-03-10T22:22:33.115Z,0.90
2023-03-10T22:27:34.575Z,0.65
2023-03-10T22:32:36.090Z,0.82
2023-03-10T22:37:38.011Z,0.73
2023-03-10T22:42:39.627Z,0.88
2023-03-10T22:47:41.147Z,0.98
2023-03-10T22:52:42.612Z,0.90
2023-03-10T22:57:44.098Z,0.98
2023-03-10T23:02:48.989Z,1.67
2023-03-10T23:07:50.560Z,1.40
2023-03-10T23:12:52.341Z,1.15
2023-03-10T23:17:54.320Z,1.02
2023-03-10T23:22:56.724Z,1.45
2023-03-10T23:27:58.197Z,0.70
2023-03-10T23:32:59.649Z,0.82
2023-03-10T23:38:01.786Z,1.00
2023-03-10T23:43:04.715Z,1.30
2023-03-10T23:48:08.298Z,1.02
2023-03-10T23:53:10.637Z,1.23
2023-03-10T23:58:12.724Z,1.23
